createdAt,value
2022-08-24T00:02:00.982Z,9.70
2022-08-24T00:04:32.018Z,10.80
2022-08-24T00:07:01.895Z,17.10
2022-08-24T00:09:31.785Z,9.70
2022-08-24T00:12:00.421Z,8.20
2022-08-24T00:14:28.847Z,12.40
2022-08-24T00:16:57.564Z,8.10
2022-08-24T00:19:26.424Z,11.40
2022-08-24T00:21:55.203Z,10.10
2022-08-24T00:24:23.830Z,16.20
2022-08-24T00:26:53.459Z,9.80
2022-08-24T00:29:23.197Z,10.40
2022-08-24T00:31:51.748Z,8.90
2022-08-24T00:34:20.210Z,12.60
2022-08-24T00:36:48.641Z,10.00
2022-08-24T00:39:17.835Z,11.90
2022-08-24T00:41:48.603Z,10.80
2022-08-24T00:44:18.518Z,8.60
2022-08-24T00:46:53.067Z,14.00
2022-08-24T00:52:00.827Z,7.90
2022-08-24T00:54:38.679Z,12.00
2022-08-24T00:57:11.992Z,11.50
2022-08-24T00:59:45.030Z,11.40
2022-08-24T01:02:17.458Z,10.50
2022-08-24T01:04:51.982Z,12.10
2022-08-24T01:07:22.538Z,13.30
2022-08-24T01:09:51.568Z,10.70
2022-08-24T01:12:21.044Z,10.60
2022-08-24T01:14:49.899Z,10.80
2022-08-24T01:17:38.941Z,10.60
2022-08-24T01:20:11.405Z,6.10
2022-08-24T01:22:54.819Z,9.60
2022-08-24T01:25:26.333Z,11.20
2022-08-24T01:27:59.063Z,16.50
2022-08-24T01:30:29.335Z,8.30
2022-08-24T01:33:07.717Z,6.50
2022-08-24T01:35:38.390Z,7.50
2022-08-24T01:38:11.710Z,12.60
2022-08-24T01:40:45.672Z,10.80
2022-08-24T01:43:14.921Z,12.00
2022-08-24T01:45:44.510Z,8.20
2022-08-24T01:48:14.799Z,9.40
2022-08-24T01:50:49.276Z,7.50
2022-08-24T01:53:19.501Z,14.30
2022-08-24T01:55:48.238Z,6.30
2022-08-24T01:58:16.691Z,11.20
2022-08-24T02:00:45.662Z,13.10
2022-08-24T02:03:15.634Z,12.70
2022-08-24T02:05:44.998Z,8.00
2022-08-24T02:08:16.229Z,11.30
2022-08-24T02:10:52.989Z,10.30
2022-08-24T02:13:26.526Z,7.50
2022-08-24T02:15:55.541Z,14.10
2022-08-24T02:18:24.133Z,10.80
2022-08-24T02:20:53.135Z,5.70
2022-08-24T02:23:22.620Z,13.50
2022-08-24T02:25:51.589Z,11.90
2022-08-24T02:28:20.212Z,12.00
2022-08-24T02:30:49.293Z,9.50
2022-08-24T02:33:17.968Z,16.50
2022-08-24T02:35:46.865Z,13.30
2022-08-24T02:38:16.017Z,18.00
2022-08-24T02:40:44.856Z,13.80
2022-08-24T02:43:13.279Z,11.90
2022-08-24T02:45:48.196Z,12.80
2022-08-24T02:48:20.023Z,14.20
2022-08-24T02:50:50.809Z,8.80
2022-08-24T02:53:21.388Z,10.70
2022-08-24T02:55:52.451Z,9.00
2022-08-24T02:58:20.939Z,7.80
2022-08-24T03:00:49.987Z,14.40
2022-08-24T03:03:19.704Z,9.60
2022-08-24T03:05:48.225Z,9.90
2022-08-24T03:08:17.948Z,10.50
2022-08-24T03:10:46.948Z,11.70
2022-08-24T03:13:16.338Z,14.50
2022-08-24T03:15:45.859Z,11.80
2022-08-24T03:18:14.543Z,9.90
2022-08-24T03:20:44.022Z,8.40
2022-08-24T03:23:13.422Z,12.00
2022-08-24T03:25:41.920Z,11.10
2022-08-24T03:28:11.322Z,16.00
2022-08-24T03:30:43.365Z,14.00
2022-08-24T03:33:16.690Z,10.80
2022-08-24T03:35:45.752Z,12.00
2022-08-24T03:38:14.750Z,8.30
2022-08-24T03:40:43.209Z,8.70
2022-08-24T03:43:31.830Z,7.90
2022-08-24T03:46:02.505Z,12.40
2022-08-24T03:48:31.274Z,12.60
2022-08-24T03:51:00.035Z,12.70
2022-08-24T03:53:28.483Z,11.30
2022-08-24T03:55:57.059Z,12.70
2022-08-24T03:58:25.507Z,10.80
2022-08-24T04:00:57.900Z,11.40
2022-08-24T04:03:27.654Z,8.00
2022-08-24T04:06:01.240Z,11.40
2022-08-24T04:08:30.367Z,9.70
2022-08-24T04:10:59.271Z,14.90
2022-08-24T04:13:31.429Z,12.90
2022-08-24T04:16:06.411Z,11.30
2022-08-24T04:18:35.522Z,14.10
2022-08-24T04:21:04.836Z,16.80
2022-08-24T04:23:46.520Z,8.80
2022-08-24T04:26:24.335Z,14.90
2022-08-24T04:29:08.833Z,12.10
2022-08-24T04:31:40.101Z,8.30
2022-08-24T04:34:09.595Z,12.90
2022-08-24T04:36:40.620Z,14.30
2022-08-24T04:39:09.137Z,10.10
2022-08-24T04:41:43.518Z,10.90
2022-08-24T04:44:13.076Z,10.00
2022-08-24T04:46:41.495Z,7.70
2022-08-24T04:49:10.570Z,15.80
2022-08-24T04:51:39.114Z,9.00
2022-08-24T04:54:08.786Z,8.10
2022-08-24T04:56:37.213Z,14.60
2022-08-24T04:59:06.531Z,8.90
2022-08-24T05:01:35.963Z,12.60
2022-08-24T05:04:05.809Z,13.30
2022-08-24T05:06:34.476Z,11.80
2022-08-24T05:09:09.375Z,8.90
2022-08-24T05:11:40.097Z,11.10
2022-08-24T05:14:09.696Z,15.80
2022-08-24T05:16:45.857Z,9.20
2022-08-24T05:19:23.100Z,9.40
2022-08-24T05:21:51.977Z,12.60
2022-08-24T05:24:21.283Z,19.50
2022-08-24T05:26:52.544Z,16.50
2022-08-24T05:29:22.820Z,18.60
2022-08-24T05:31:52.938Z,10.10
2022-08-24T05:34:23.767Z,13.00
2022-08-24T05:36:52.589Z,16.30
2022-08-24T05:39:49.974Z,16.70
2022-08-24T05:42:18.322Z,11.10
2022-08-24T05:44:49.434Z,11.50
2022-08-24T05:47:20.824Z,11.40
2022-08-24T05:49:52.427Z,12.00
2022-08-24T05:52:21.853Z,19.50
2022-08-24T05:54:53.412Z,17.30
2022-08-24T05:57:24.313Z,17.70
2022-08-24T06:00:07.635Z,20.40
2022-08-24T06:02:44.419Z,13.30
2022-08-24T06:05:13.912Z,14.40
2022-08-24T06:07:43.465Z,19.40
2022-08-24T06:10:35.347Z,19.30
2022-08-24T06:13:03.058Z,17.40
2022-08-24T06:15:32.437Z,16.20
2022-08-24T06:18:01.252Z,20.40
2022-08-24T06:20:30.643Z,12.50
2022-08-24T06:22:59.182Z,12.20
2022-08-24T06:25:53.485Z,16.20
2022-08-24T06:28:23.574Z,14.50
2022-08-24T06:31:01.093Z,18.90
2022-08-24T06:33:31.349Z,13.40
2022-08-24T06:36:00.816Z,21.10
2022-08-24T06:38:31.956Z,25.40
2022-08-24T06:41:01.135Z,26.00
2022-08-24T06:43:30.459Z,14.50
2022-08-24T06:46:03.470Z,21.00
2022-08-24T06:48:38.629Z,15.40
2022-08-24T06:51:12.541Z,17.00
2022-08-24T06:53:42.935Z,24.30
2022-08-24T06:56:13.731Z,22.40
2022-08-24T06:58:45.879Z,22.80
2022-08-24T07:01:20.544Z,16.00
2022-08-24T07:03:49.902Z,14.70
2022-08-24T07:06:42.118Z,16.80
2022-08-24T07:09:11.655Z,21.90
2022-08-24T07:11:41.811Z,14.70
2022-08-24T07:14:11.588Z,16.00
2022-08-24T07:16:40.852Z,21.40
2022-08-24T07:19:10.364Z,19.50
2022-08-24T07:21:38.936Z,23.80
2022-08-24T07:24:08.043Z,25.00
2022-08-24T07:26:38.948Z,26.20
2022-08-24T07:29:43.754Z,29.80
2022-08-24T07:32:02.911Z,18.10
2022-08-24T07:34:39.312Z,18.20
2022-08-24T07:37:08.996Z,29.40
2022-08-24T07:39:40.517Z,23.40
2022-08-24T07:42:18.869Z,23.80
2022-08-24T07:44:51.150Z,27.40
2022-08-24T07:47:37.704Z,39.80
2022-08-24T07:50:20.118Z,21.70
2022-08-24T07:52:48.764Z,31.20
2022-08-24T07:55:17.695Z,33.80
2022-08-24T07:57:47.388Z,29.60
2022-08-24T08:00:19.475Z,36.80
2022-08-24T08:02:49.802Z,22.80
2022-08-24T08:05:21.989Z,25.80
2022-08-24T08:07:54.228Z,25.20
2022-08-24T08:10:23.468Z,18.40
2022-08-24T08:12:53.355Z,19.00
2022-08-24T08:15:22.035Z,26.60
2022-08-24T08:18:02.461Z,34.10
2022-08-24T08:20:32.517Z,37.60
2022-08-24T08:23:20.405Z,33.10
2022-08-24T08:26:12.986Z,34.30
2022-08-24T08:29:02.801Z,25.20
2022-08-24T08:31:34.342Z,29.60
2022-08-24T08:34:05.401Z,27.00
2022-08-24T08:36:35.574Z,30.30
2022-08-24T08:39:05.237Z,34.40
2022-08-24T08:42:14.711Z,46.00
2022-08-24T08:45:00.653Z,27.70
2022-08-24T08:50:57.287Z,33.90
2022-08-24T08:53:55.615Z,24.50
2022-08-24T08:56:35.171Z,27.40
2022-08-24T08:59:14.080Z,33.50
2022-08-24T09:02:01.251Z,43.50
2022-08-24T09:05:27.078Z,48.90
2022-08-24T09:08:02.991Z,46.30
2022-08-24T09:10:44.074Z,41.60
2022-08-24T09:13:40.814Z,44.70
2022-08-24T09:16:37.689Z,48.30
2022-08-24T09:19:33.995Z,44.30
2022-08-24T09:22:11.340Z,42.60
2022-08-24T09:25:02.161Z,56.10
2022-08-24T09:28:00.735Z,47.90
2022-08-24T09:30:57.140Z,54.60
2022-08-24T09:33:35.995Z,50.70
2022-08-24T09:36:12.897Z,53.90
2022-08-24T09:39:05.151Z,63.00
2022-08-24T09:42:15.111Z,49.90
2022-08-24T09:45:12.202Z,44.70
2022-08-24T09:48:07.645Z,52.00
2022-08-24T09:51:22.603Z,38.80
2022-08-24T09:54:13.810Z,34.50
2022-08-24T09:56:56.600Z,64.10
2022-08-24T09:59:52.203Z,70.50
2022-08-24T10:02:40.294Z,61.30
2022-08-24T10:05:22.282Z,44.10
2022-08-24T10:07:58.529Z,36.40
2022-08-24T10:10:35.817Z,48.90
2022-08-24T10:13:19.984Z,47.00
2022-08-24T10:16:06.834Z,44.60
2022-08-24T10:18:47.266Z,25.70
2022-08-24T10:21:38.026Z,34.10
2022-08-24T10:24:46.515Z,32.70
2022-08-24T10:27:27.050Z,33.10
2022-08-24T10:30:14.276Z,30.40
2022-08-24T10:32:57.205Z,30.90
2022-08-24T10:35:33.233Z,29.00
2022-08-24T10:38:47.275Z,28.20
2022-08-24T10:42:06.094Z,29.80
2022-08-24T10:44:49.496Z,34.60
2022-08-24T10:47:26.299Z,30.40
2022-08-24T10:50:31.153Z,34.00
2022-08-24T10:53:28.251Z,32.40
2022-08-24T10:56:11.301Z,26.00
2022-08-24T10:59:02.341Z,39.30
2022-08-24T11:01:34.060Z,32.90
2022-08-24T11:04:08.219Z,28.80
2022-08-24T11:06:39.122Z,43.30
2022-08-24T11:09:12.991Z,45.20
2022-08-24T11:11:46.449Z,41.60
2022-08-24T11:14:26.935Z,44.70
2022-08-24T11:17:15.695Z,44.10
2022-08-24T11:19:44.830Z,42.10
2022-08-24T11:22:38.977Z,50.70
2022-08-24T11:25:16.234Z,38.10
2022-08-24T11:27:48.014Z,75.90
2022-08-24T11:30:25.466Z,51.20
2022-08-24T11:32:56.699Z,103.80
2022-08-24T11:35:34.738Z,71.60
2022-08-24T11:38:09.067Z,59.40
2022-08-24T11:40:42.144Z,44.40
2022-08-24T11:43:27.805Z,40.30
2022-08-24T11:46:11.304Z,48.40
2022-08-24T11:48:53.566Z,46.70
2022-08-24T11:51:35.690Z,34.80
2022-08-24T11:54:18.804Z,36.70
2022-08-24T11:56:57.958Z,48.80
2022-08-24T11:59:39.331Z,47.10
2022-08-24T12:02:16.431Z,36.30
2022-08-24T12:04:53.863Z,46.20
2022-08-24T12:07:39.590Z,42.90
2022-08-24T12:10:32.817Z,47.50
2022-08-24T12:13:10.076Z,48.80
2022-08-24T12:15:48.662Z,46.50
2022-08-24T12:18:28.009Z,47.00
2022-08-24T12:20:57.820Z,128.50
2022-08-24T12:23:33.384Z,86.60
2022-08-24T12:26:08.463Z,62.40
2022-08-24T12:28:40.298Z,67.80
2022-08-24T12:31:15.860Z,68.90
2022-08-24T12:33:52.835Z,48.70
2022-08-24T12:36:29.318Z,54.40
2022-08-24T12:39:09.644Z,57.50
2022-08-24T12:41:48.350Z,61.00
2022-08-24T12:44:50.626Z,74.90
2022-08-24T12:47:25.913Z,51.90
2022-08-24T12:50:01.376Z,63.30
2022-08-24T12:53:09.028Z,62.10
2022-08-24T12:55:56.783Z,60.40
2022-08-24T12:58:54.444Z,68.10
2022-08-24T13:01:27.786Z,204.50
2022-08-24T13:04:10.463Z,64.10
2022-08-24T13:06:43.561Z,51.60
2022-08-24T13:09:26.070Z,58.90
2022-08-24T13:11:56.256Z,48.30
2022-08-24T13:14:26.977Z,51.90
2022-08-24T13:17:13.608Z,66.60
2022-08-24T13:19:45.466Z,138.50
2022-08-24T13:22:48.962Z,92.50
2022-08-24T13:25:51.346Z,64.00
2022-08-24T13:28:38.183Z,48.10
2022-08-24T13:31:31.779Z,52.70
2022-08-24T13:34:38.351Z,53.70
2022-08-24T13:37:16.396Z,50.50
2022-08-24T13:40:05.163Z,65.30
2022-08-24T13:43:07.625Z,51.00
2022-08-24T13:45:42.644Z,56.70
2022-08-24T13:48:23.975Z,45.40
2022-08-24T13:51:19.899Z,53.50
2022-08-24T13:54:19.911Z,67.50
2022-08-24T13:57:22.850Z,49.20
2022-08-24T14:00:17.803Z,53.10
2022-08-24T14:03:01.007Z,63.60
2022-08-24T14:05:37.775Z,57.50
2022-08-24T14:08:22.865Z,48.90
2022-08-24T14:11:03.032Z,58.30
2022-08-24T14:13:47.324Z,63.50
2022-08-24T14:16:57.236Z,68.60
2022-08-24T14:19:34.934Z,57.20
2022-08-24T14:22:19.261Z,62.90
2022-08-24T14:24:57.130Z,57.10
2022-08-24T14:27:44.884Z,69.00
2022-08-24T14:30:54.259Z,79.80
2022-08-24T14:33:30.481Z,68.50
2022-08-24T14:36:17.524Z,55.60
2022-08-24T14:39:05.483Z,56.10
2022-08-24T14:42:04.213Z,68.50
2022-08-24T14:44:56.195Z,68.40
2022-08-24T14:47:41.390Z,65.10
2022-08-24T14:50:17.635Z,75.80
2022-08-24T14:53:01.536Z,70.80
2022-08-24T14:55:36.810Z,80.80
2022-08-24T14:58:28.977Z,65.70
2022-08-24T15:01:41.211Z,67.00
2022-08-24T15:04:40.203Z,67.70
2022-08-24T15:07:33.818Z,54.50
2022-08-24T15:10:11.365Z,66.40
2022-08-24T15:12:44.767Z,79.20
2022-08-24T15:15:21.822Z,53.30
2022-08-24T15:18:00.128Z,85.40
2022-08-24T15:20:44.897Z,90.80
2022-08-24T15:23:24.028Z,67.80
2022-08-24T15:25:56.588Z,75.00
2022-08-24T15:28:28.979Z,67.10
2022-08-24T15:31:02.306Z,77.80
2022-08-24T15:33:31.914Z,71.80
2022-08-24T15:36:10.747Z,58.60
2022-08-24T15:38:41.695Z,59.90
2022-08-24T15:41:14.163Z,60.70
2022-08-24T15:43:46.705Z,74.60
2022-08-24T15:46:21.146Z,54.80
2022-08-24T15:48:50.789Z,71.20
2022-08-24T15:51:39.986Z,77.10
2022-08-24T15:54:29.482Z,66.40
2022-08-24T15:57:00.377Z,73.10
2022-08-24T15:59:31.188Z,61.90
2022-08-24T16:02:37.369Z,71.10
2022-08-24T16:05:20.877Z,78.40
2022-08-24T16:08:08.792Z,65.40
2022-08-24T16:10:40.882Z,80.00
2022-08-24T16:13:18.878Z,72.90
2022-08-24T16:15:49.961Z,86.40
2022-08-24T16:18:20.104Z,85.80
2022-08-24T16:20:50.389Z,78.10
2022-08-24T16:23:26.179Z,68.90
2022-08-24T16:26:23.494Z,70.30
2022-08-24T16:28:54.695Z,84.90
2022-08-24T16:31:50.606Z,69.60
2022-08-24T16:34:23.702Z,66.80
2022-08-24T16:36:52.645Z,77.90
2022-08-24T16:39:21.760Z,73.60
2022-08-24T16:41:52.048Z,75.00
2022-08-24T16:44:21.103Z,65.80
2022-08-24T16:46:55.129Z,71.00
2022-08-24T16:49:24.407Z,74.50
2022-08-24T16:51:52.856Z,87.20
2022-08-24T16:54:25.269Z,77.10
2022-08-24T16:56:53.970Z,63.40
2022-08-24T16:59:28.270Z,67.40
2022-08-24T17:01:57.289Z,73.30
2022-08-24T17:04:25.936Z,66.10
2022-08-24T17:06:55.420Z,62.80
2022-08-24T17:09:24.616Z,84.90
2022-08-24T17:11:53.073Z,68.00
2022-08-24T17:14:21.578Z,78.00
2022-08-24T17:16:50.668Z,68.20
2022-08-24T17:19:21.149Z,75.10
2022-08-24T17:21:49.756Z,77.80
2022-08-24T17:24:21.906Z,77.70
2022-08-24T17:26:51.672Z,84.50
2022-08-24T17:29:21.698Z,66.60
2022-08-24T17:31:51.110Z,88.00
2022-08-24T17:34:21.788Z,90.20
2022-08-24T17:36:53.890Z,67.90
2022-08-24T17:39:24.198Z,78.60
2022-08-24T17:41:53.914Z,72.30
2022-08-24T17:44:26.131Z,68.20
2022-08-24T17:47:01.539Z,66.70
2022-08-24T17:49:31.282Z,57.90
2022-08-24T17:52:00.099Z,90.90
2022-08-24T17:54:29.263Z,72.10
2022-08-24T17:56:57.890Z,75.60
2022-08-24T17:59:30.128Z,74.60
2022-08-24T18:02:01.206Z,83.60
2022-08-24T18:04:32.174Z,67.90
2022-08-24T18:07:04.154Z,68.40
2022-08-24T18:09:35.361Z,82.40
2022-08-24T18:12:08.088Z,67.60
2022-08-24T18:14:36.938Z,77.90
2022-08-24T18:17:09.123Z,72.00
2022-08-24T18:19:38.802Z,70.10
2022-08-24T18:22:07.712Z,109.30
2022-08-24T18:24:36.432Z,73.10
2022-08-24T18:27:10.245Z,67.60
2022-08-24T18:29:41.456Z,70.10
2022-08-24T18:32:12.851Z,64.80
2022-08-24T18:34:48.292Z,74.10
2022-08-24T18:37:19.130Z,79.30
2022-08-24T18:39:50.063Z,81.90
2022-08-24T18:42:19.051Z,73.60
2022-08-24T18:44:48.078Z,91.30
2022-08-24T18:47:16.735Z,96.00
2022-08-24T18:49:45.800Z,99.30
2022-08-24T18:52:16.421Z,75.10
2022-08-24T18:54:47.026Z,72.30
2022-08-24T18:57:16.940Z,77.10
2022-08-24T18:59:47.114Z,55.50
2022-08-24T19:02:33.281Z,62.70
2022-08-24T19:05:06.450Z,67.50
2022-08-24T19:07:39.544Z,77.50
2022-08-24T19:10:12.886Z,70.00
2022-08-24T19:12:46.865Z,61.80
2022-08-24T19:15:34.613Z,58.90
2022-08-24T19:18:06.136Z,62.70
2022-08-24T19:20:35.150Z,84.20
2022-08-24T19:23:10.789Z,72.50
2022-08-24T19:25:42.588Z,49.90
2022-08-24T19:28:11.884Z,56.90
2022-08-24T19:30:41.596Z,74.60
2022-08-24T19:33:14.261Z,72.00
2022-08-24T19:35:43.262Z,65.10
2022-08-24T19:38:11.775Z,64.50
2022-08-24T19:40:47.640Z,56.60
2022-08-24T19:43:16.935Z,67.20
2022-08-24T19:46:04.729Z,51.40
2022-08-24T19:48:36.483Z,47.90
2022-08-24T19:51:07.685Z,52.00
2022-08-24T19:53:38.019Z,55.40
2022-08-24T19:56:07.473Z,43.80
2022-08-24T19:58:44.441Z,28.50
2022-08-24T20:01:17.498Z,43.40
2022-08-24T20:03:46.274Z,24.10
2022-08-24T20:06:16.863Z,27.30
2022-08-24T20:08:48.352Z,26.80
2022-08-24T20:11:17.552Z,25.20
2022-08-24T20:13:46.852Z,15.00
2022-08-24T20:16:20.674Z,30.40
2022-08-24T20:18:49.615Z,20.10
2022-08-24T20:21:18.323Z,12.00
2022-08-24T20:23:47.003Z,20.10
2022-08-24T20:26:15.931Z,18.20
2022-08-24T20:28:48.149Z,10.70
2022-08-24T20:31:18.632Z,22.20
2022-08-24T20:33:47.639Z,13.40
2022-08-24T20:36:22.868Z,17.40
2022-08-24T20:38:52.761Z,13.50
2022-08-24T20:41:21.599Z,19.60
2022-08-24T20:43:50.332Z,19.10
2022-08-24T20:46:19.667Z,17.60
2022-08-24T20:48:55.696Z,18.80
2022-08-24T20:51:25.520Z,24.80
2022-08-24T20:53:54.401Z,13.70
2022-08-24T20:56:30.780Z,18.30
2022-08-24T20:59:02.105Z,20.50
2022-08-24T21:01:31.076Z,19.40
2022-08-24T21:04:04.801Z,20.90
2022-08-24T21:06:35.718Z,18.40
2022-08-24T21:09:06.056Z,21.30
2022-08-24T21:11:38.435Z,15.80
2022-08-24T21:14:07.907Z,20.30
2022-08-24T21:16:39.198Z,15.00
2022-08-24T21:19:09.123Z,16.90
2022-08-24T21:21:42.225Z,22.30
2022-08-24T21:24:11.588Z,14.50
2022-08-24T21:26:40.426Z,19.00
2022-08-24T21:29:10.326Z,17.70
2022-08-24T21:31:39.051Z,17.20
2022-08-24T21:34:26.678Z,16.30
2022-08-24T21:36:56.460Z,9.70
2022-08-24T21:39:25.723Z,16.90
2022-08-24T21:41:54.586Z,11.80
2022-08-24T21:44:23.632Z,14.60
2022-08-24T21:46:52.729Z,24.20
2022-08-24T21:49:21.450Z,19.60
2022-08-24T21:51:50.044Z,21.80
2022-08-24T21:54:18.638Z,14.50
2022-08-24T21:56:47.246Z,11.40
2022-08-24T21:59:15.974Z,14.60
2022-08-24T22:01:45.152Z,18.00
2022-08-24T22:04:14.081Z,20.90
2022-08-24T22:06:42.551Z,15.10
2022-08-24T22:09:11.752Z,18.40
2022-08-24T22:11:41.683Z,20.50
2022-08-24T22:14:10.245Z,29.10
2022-08-24T22:16:38.989Z,17.60
2022-08-24T22:19:07.628Z,20.90
2022-08-24T22:21:39.155Z,18.30
2022-08-24T22:24:08.211Z,18.10
2022-08-24T22:26:37.172Z,16.70
2022-08-24T22:29:09.429Z,20.20
2022-08-24T22:31:39.914Z,17.90
2022-08-24T22:34:11.731Z,13.30
2022-08-24T22:36:45.215Z,13.50
2022-08-24T22:39:13.932Z,15.50
2022-08-24T22:41:43.638Z,15.20
2022-08-24T22:44:21.382Z,9.70
2022-08-24T22:46:54.039Z,15.80
2022-08-24T22:49:26.189Z,11.00
2022-08-24T22:51:55.229Z,14.30
2022-08-24T22:54:25.352Z,10.90
2022-08-24T22:56:56.002Z,13.90
2022-08-24T22:59:26.870Z,11.70
2022-08-24T23:01:57.129Z,13.80
2022-08-24T23:04:28.081Z,17.60
2022-08-24T23:06:57.048Z,10.10
2022-08-24T23:09:26.483Z,21.70
2022-08-24T23:11:55.957Z,16.70
2022-08-24T23:14:24.932Z,16.90
2022-08-24T23:16:54.418Z,13.30
2022-08-24T23:19:43.187Z,21.30
2022-08-24T23:22:14.102Z,26.10
2022-08-24T23:24:44.345Z,15.50
2022-08-24T23:27:14.552Z,19.20
2022-08-24T23:29:45.389Z,19.40
2022-08-24T23:32:17.975Z,16.60
2022-08-24T23:34:47.907Z,24.20
2022-08-24T23:37:18.355Z,17.30
2022-08-24T23:39:47.044Z,14.30
2022-08-24T23:42:15.725Z,13.50
2022-08-24T23:44:44.127Z,19.70
2022-08-24T23:47:12.930Z,18.00
2022-08-24T23:49:41.570Z,13.40
2022-08-24T23:52:09.898Z,13.00
2022-08-24T23:57:22.912Z,16.50
2022-08-24T23:59:51.277Z,12.30
